createdAt,value
2018-05-21T00:00:05.114Z,13.95
2018-05-21T00:02:31.952Z,13.96
2018-05-21T00:04:59.119Z,13.94
2018-05-21T00:07:25.987Z,13.98
2018-05-21T00:09:53.574Z,13.92
2018-05-21T00:12:20.731Z,13.80
2018-05-21T00:14:47.595Z,13.89
2018-05-21T00:17:14.536Z,13.86
2018-05-21T00:19:41.414Z,13.85
2018-05-21T00:22:08.242Z,13.78
2018-05-21T00:24:35.088Z,13.70
2018-05-21T00:27:01.995Z,13.72
2018-05-21T00:29:28.831Z,13.78
2018-05-21T00:31:55.667Z,13.82
2018-05-21T00:34:39.459Z,13.77
2018-05-21T00:37:06.311Z,13.75
2018-05-21T00:39:33.153Z,13.74
2018-05-21T00:42:00.441Z,13.57
2018-05-21T00:44:28.018Z,13.60
2018-05-21T00:46:54.857Z,13.62
2018-05-21T00:49:22.740Z,13.55
2018-05-21T00:51:49.575Z,13.56
2018-05-21T00:54:16.432Z,13.57
2018-05-21T00:56:43.566Z,13.57
2018-05-21T00:59:10.407Z,13.51
2018-05-21T01:01:38.009Z,13.55
2018-05-21T01:04:04.925Z,13.60
2018-05-21T01:06:31.799Z,13.54
2018-05-21T01:08:58.643Z,13.41
2018-05-21T01:11:25.532Z,13.45
2018-05-21T01:13:53.124Z,13.39
2018-05-21T01:16:19.954Z,13.32
2018-05-21T01:18:47.117Z,13.38
2018-05-21T01:21:13.952Z,13.36
2018-05-21T01:23:40.800Z,13.28
2018-05-21T01:26:08.056Z,13.32
2018-05-21T01:28:34.887Z,13.37
2018-05-21T01:31:02.466Z,13.36
2018-05-21T01:33:29.352Z,13.30
2018-05-21T01:35:56.239Z,13.23
2018-05-21T01:38:23.083Z,13.19
2018-05-21T01:40:50.968Z,13.12
2018-05-21T01:43:17.903Z,13.14
2018-05-21T01:45:45.481Z,13.13
2018-05-21T01:48:12.365Z,13.08
2018-05-21T01:50:39.212Z,13.12
2018-05-21T01:53:06.114Z,13.11
2018-05-21T01:55:32.983Z,13.13
2018-05-21T01:57:59.830Z,13.01
2018-05-21T02:00:27.508Z,13.03
2018-05-21T02:02:54.399Z,12.96
2018-05-21T02:05:21.244Z,12.98
2018-05-21T02:07:48.111Z,12.87
2018-05-21T02:10:15.049Z,13.00
2018-05-21T02:12:41.880Z,12.96
2018-05-21T02:15:15.413Z,12.96
2018-05-21T02:17:42.539Z,12.91
2018-05-21T02:20:09.460Z,12.82
2018-05-21T02:22:36.247Z,12.76
2018-05-21T02:25:03.208Z,12.83
2018-05-21T02:27:30.074Z,12.67
2018-05-21T02:29:56.932Z,12.76
2018-05-21T02:32:23.827Z,12.82
2018-05-21T02:34:50.686Z,12.74
2018-05-21T02:37:17.528Z,12.67
2018-05-21T02:39:44.758Z,12.64
2018-05-21T02:42:11.583Z,12.63
2018-05-21T02:44:38.592Z,12.56
2018-05-21T02:47:05.791Z,12.67
2018-05-21T02:49:32.609Z,12.60
2018-05-21T02:51:59.443Z,12.61
2018-05-21T02:54:26.338Z,12.48
2018-05-21T02:56:53.176Z,12.51
2018-05-21T02:59:20.028Z,12.59
2018-05-21T03:01:47.267Z,12.51
2018-05-21T03:04:14.840Z,12.44
2018-05-21T03:06:41.654Z,12.50
2018-05-21T03:09:09.544Z,12.45
2018-05-21T03:11:36.384Z,12.44
2018-05-21T03:14:03.277Z,12.40
2018-05-21T03:16:30.486Z,12.36
2018-05-21T03:18:57.335Z,12.31
2018-05-21T03:21:24.172Z,12.34
2018-05-21T03:23:51.063Z,12.25
2018-05-21T03:26:17.912Z,12.26
2018-05-21T03:28:44.743Z,12.25
2018-05-21T03:31:11.619Z,12.26
2018-05-21T03:33:39.192Z,12.25
2018-05-21T03:36:06.789Z,12.14
2018-05-21T03:38:33.924Z,12.21
2018-05-21T03:41:00.744Z,12.18
2018-05-21T03:43:28.317Z,12.12
2018-05-21T03:45:56.402Z,12.25
2018-05-21T03:48:23.227Z,12.27
2018-05-21T03:50:50.796Z,12.32
2018-05-21T03:53:18.659Z,12.27
2018-05-21T03:55:46.224Z,12.28
2018-05-21T04:01:37.133Z,12.13
2018-05-21T04:04:04.296Z,12.24
2018-05-21T04:06:31.888Z,12.33
2018-05-21T04:08:58.722Z,12.23
2018-05-21T04:11:26.697Z,12.23
2018-05-21T04:13:53.551Z,12.02
2018-05-21T04:16:20.387Z,12.14
2018-05-21T04:18:47.571Z,12.21
2018-05-21T04:21:14.394Z,12.41
2018-05-21T04:23:41.228Z,12.45
2018-05-21T04:26:08.376Z,12.54
2018-05-21T04:28:41.186Z,12.62
2018-05-21T04:31:08.052Z,12.60
2018-05-21T04:33:35.258Z,12.91
2018-05-21T04:36:02.116Z,13.01
2018-05-21T04:38:28.951Z,13.04
2018-05-21T04:40:56.097Z,13.21
2018-05-21T04:43:22.935Z,13.23
2018-05-21T04:45:49.781Z,13.19
2018-05-21T04:48:17.135Z,13.32
2018-05-21T04:50:44.033Z,13.52
2018-05-21T04:53:10.959Z,13.55
2018-05-21T04:55:37.799Z,13.84
2018-05-21T04:58:04.712Z,14.29
2018-05-21T05:00:32.340Z,14.94
2018-05-21T05:02:59.172Z,15.43
2018-05-21T05:05:26.000Z,15.14
2018-05-21T05:07:53.005Z,15.57
2018-05-21T05:10:20.583Z,16.38
2018-05-21T05:12:47.455Z,16.01
2018-05-21T05:15:33.063Z,16.74
2018-05-21T05:17:59.889Z,16.60
2018-05-21T05:20:26.719Z,16.86
2018-05-21T05:22:53.953Z,17.17
2018-05-21T05:25:20.795Z,17.38
2018-05-21T05:27:47.627Z,17.54
2018-05-21T05:30:14.486Z,17.74
2018-05-21T05:32:42.055Z,17.71
2018-05-21T05:35:09.847Z,17.35
2018-05-21T05:37:36.704Z,17.61
2018-05-21T05:40:03.549Z,17.69
2018-05-21T05:42:30.363Z,18.04
2018-05-21T05:44:58.045Z,18.03
2018-05-21T05:47:24.872Z,17.10
2018-05-21T05:49:51.759Z,17.54
2018-05-21T05:52:18.632Z,17.98
2018-05-21T05:54:45.451Z,17.88
2018-05-21T05:57:12.271Z,18.23
2018-05-21T05:59:39.134Z,17.93
2018-05-21T06:02:05.952Z,18.45
2018-05-21T06:04:32.759Z,18.56
2018-05-21T06:07:00.356Z,18.58
2018-05-21T06:09:27.226Z,17.80
2018-05-21T06:11:54.041Z,18.60
2018-05-21T06:14:20.903Z,18.32
2018-05-21T06:16:47.793Z,19.03
2018-05-21T06:19:15.648Z,19.01
2018-05-21T06:21:42.669Z,19.24
2018-05-21T06:24:09.499Z,18.92
2018-05-21T06:26:36.308Z,19.27
2018-05-21T06:29:03.921Z,19.04
2018-05-21T06:31:30.735Z,19.02
2018-05-21T06:33:57.706Z,18.71
2018-05-21T06:36:24.483Z,18.93
2018-05-21T06:38:51.295Z,19.59
2018-05-21T06:41:18.141Z,19.97
2018-05-21T06:43:45.027Z,19.10
2018-05-21T06:46:13.219Z,19.55
2018-05-21T06:48:40.253Z,19.05
2018-05-21T06:51:07.938Z,19.21
2018-05-21T06:53:34.811Z,19.51
2018-05-21T06:56:01.671Z,19.46
2018-05-21T06:58:28.636Z,19.71
2018-05-21T07:00:55.451Z,19.34
2018-05-21T07:03:22.267Z,20.41
2018-05-21T07:05:49.294Z,20.63
2018-05-21T07:08:16.851Z,20.26
2018-05-21T07:10:44.428Z,20.47
2018-05-21T07:13:11.468Z,20.32
2018-05-21T07:15:38.290Z,20.51
2018-05-21T07:18:05.135Z,20.51
2018-05-21T07:20:31.989Z,20.90
2018-05-21T07:22:59.551Z,21.09
2018-05-21T07:25:27.107Z,20.92
2018-05-21T07:27:54.016Z,20.66
2018-05-21T07:30:20.832Z,21.22
2018-05-21T07:32:47.658Z,21.67
2018-05-21T07:35:15.380Z,21.81
2018-05-21T07:37:42.216Z,21.64
2018-05-21T07:40:09.062Z,21.67
2018-05-21T07:42:35.930Z,21.56
2018-05-21T07:45:02.816Z,22.11
2018-05-21T07:47:29.771Z,22.56
2018-05-21T07:49:56.630Z,22.27
2018-05-21T07:52:23.512Z,22.80
2018-05-21T07:54:50.337Z,21.79
2018-05-21T07:57:17.285Z,22.20
2018-05-21T07:59:44.130Z,22.75
2018-05-21T08:02:10.959Z,22.64
2018-05-21T08:04:37.824Z,22.46
2018-05-21T08:07:04.648Z,22.64
2018-05-21T08:09:31.460Z,22.73
2018-05-21T08:11:58.314Z,22.31
2018-05-21T08:14:25.171Z,22.27
2018-05-21T08:16:52.012Z,22.61
2018-05-21T08:19:19.147Z,23.46
2018-05-21T08:21:46.023Z,23.09
2018-05-21T08:24:12.864Z,23.19
2018-05-21T08:26:39.724Z,23.21
2018-05-21T08:29:06.595Z,23.27
2018-05-21T08:31:33.451Z,23.55
2018-05-21T08:34:01.012Z,23.38
2018-05-21T08:36:27.881Z,23.51
2018-05-21T08:38:54.704Z,23.75
2018-05-21T08:41:21.530Z,22.58
2018-05-21T08:43:49.149Z,23.72
2018-05-21T08:46:15.999Z,23.89
2018-05-21T08:48:42.881Z,24.56
2018-05-21T08:51:09.779Z,24.08
2018-05-21T08:53:36.647Z,23.92
2018-05-21T08:56:03.487Z,23.68
2018-05-21T08:58:30.347Z,24.40
2018-05-21T09:00:57.198Z,24.40
2018-05-21T09:03:24.015Z,23.53
2018-05-21T09:05:50.899Z,24.05
2018-05-21T09:08:18.479Z,24.19
2018-05-21T09:10:45.295Z,24.22
2018-05-21T09:13:14.643Z,24.62
2018-05-21T09:15:41.463Z,24.55
2018-05-21T09:18:08.311Z,24.40
2018-05-21T09:20:35.221Z,23.64
2018-05-21T09:23:03.705Z,24.83
2018-05-21T09:25:31.086Z,24.85
2018-05-21T09:27:57.956Z,23.91
2018-05-21T09:30:24.775Z,24.77
2018-05-21T09:32:52.382Z,25.39
2018-05-21T09:35:19.236Z,24.96
2018-05-21T09:37:46.060Z,24.13
2018-05-21T09:40:12.884Z,25.52
2018-05-21T09:42:39.752Z,24.98
2018-05-21T09:45:06.592Z,24.40
2018-05-21T09:47:33.427Z,24.01
2018-05-21T09:50:00.365Z,24.34
2018-05-21T09:52:27.448Z,23.73
2018-05-21T09:54:54.273Z,23.96
2018-05-21T09:57:21.377Z,23.67
2018-05-21T09:59:48.938Z,23.90
2018-05-21T10:02:16.496Z,23.76
2018-05-21T10:04:43.417Z,23.81
2018-05-21T10:07:10.338Z,23.93
2018-05-21T10:09:37.182Z,23.51
2018-05-21T10:12:04.902Z,23.61
2018-05-21T10:14:31.745Z,23.87
2018-05-21T10:16:59.309Z,23.91
2018-05-21T10:19:26.885Z,24.01
2018-05-21T10:21:53.827Z,23.87
2018-05-21T10:24:20.641Z,24.02
2018-05-21T10:26:47.476Z,23.78
2018-05-21T10:29:14.347Z,23.88
2018-05-21T10:31:41.976Z,24.17
2018-05-21T10:34:08.788Z,24.37
2018-05-21T10:36:35.643Z,24.38
2018-05-21T10:39:02.571Z,24.36
2018-05-21T10:41:29.443Z,24.36
2018-05-21T10:43:56.337Z,24.21
2018-05-21T10:46:23.132Z,24.01
2018-05-21T10:48:50.003Z,24.10
2018-05-21T10:51:17.661Z,24.61
2018-05-21T10:53:44.456Z,24.35
2018-05-21T10:56:12.232Z,24.35
2018-05-21T10:58:39.055Z,24.53
2018-05-21T11:01:05.899Z,24.21
2018-05-21T11:03:32.753Z,24.48
2018-05-21T11:05:59.585Z,24.84
2018-05-21T11:08:27.249Z,24.47
2018-05-21T11:10:54.129Z,24.69
2018-05-21T11:13:20.957Z,24.47
2018-05-21T11:15:47.792Z,24.83
2018-05-21T11:18:14.700Z,24.88
2018-05-21T11:20:42.332Z,25.09
2018-05-21T11:23:09.158Z,24.58
2018-05-21T11:25:36.136Z,24.57
2018-05-21T11:28:03.063Z,24.60
2018-05-21T11:30:29.889Z,24.76
2018-05-21T11:32:57.639Z,24.58
2018-05-21T11:35:24.439Z,24.20
2018-05-21T11:37:51.263Z,24.21
2018-05-21T11:40:18.135Z,24.23
2018-05-21T11:42:45.054Z,24.42
2018-05-21T11:45:12.608Z,24.28
2018-05-21T11:47:39.462Z,24.41
2018-05-21T11:50:06.310Z,24.41
2018-05-21T11:52:33.188Z,24.57
2018-05-21T11:55:00.021Z,24.39
2018-05-21T11:57:27.588Z,24.71
2018-05-21T11:59:55.155Z,24.57
2018-05-21T12:02:22.753Z,24.77
2018-05-21T12:04:49.571Z,24.80
2018-05-21T12:07:16.400Z,25.09
2018-05-21T12:09:43.450Z,24.86
2018-05-21T12:12:11.011Z,25.09
2018-05-21T12:14:38.590Z,25.01
2018-05-21T12:17:05.570Z,25.53
2018-05-21T12:19:32.390Z,25.23
2018-05-21T12:21:59.307Z,25.02
2018-05-21T12:24:27.006Z,25.32
2018-05-21T12:26:53.847Z,25.25
2018-05-21T12:29:20.669Z,24.93
2018-05-21T12:31:47.531Z,25.22
2018-05-21T12:34:14.439Z,25.42
2018-05-21T12:36:41.994Z,25.34
2018-05-21T12:39:08.867Z,25.34
2018-05-21T12:41:35.688Z,25.47
2018-05-21T12:44:03.265Z,25.37
2018-05-21T12:46:30.130Z,25.35
2018-05-21T12:48:57.051Z,25.16
2018-05-21T12:51:24.605Z,25.16
2018-05-21T12:53:52.212Z,25.22
2018-05-21T12:56:19.051Z,25.23
2018-05-21T12:58:45.876Z,25.67
2018-05-21T13:01:12.800Z,25.64
2018-05-21T13:03:39.753Z,25.73
2018-05-21T13:06:06.591Z,25.22
2018-05-21T13:08:34.169Z,25.24
2018-05-21T13:11:01.045Z,25.59
2018-05-21T13:13:27.868Z,25.48
2018-05-21T13:15:54.724Z,25.39
2018-05-21T13:18:21.615Z,25.61
2018-05-21T13:20:48.440Z,25.74
2018-05-21T13:23:15.272Z,25.77
2018-05-21T13:25:42.148Z,25.59
2018-05-21T13:28:08.969Z,25.63
2018-05-21T13:30:35.887Z,25.69
2018-05-21T13:33:02.773Z,25.41
2018-05-21T13:35:29.679Z,25.53
2018-05-21T13:37:56.596Z,25.37
2018-05-21T13:40:23.464Z,25.59
2018-05-21T13:42:50.274Z,25.77
2018-05-21T13:45:17.828Z,25.75
2018-05-21T13:47:44.788Z,25.99
2018-05-21T13:50:12.367Z,25.91
2018-05-21T13:52:39.179Z,26.13
2018-05-21T13:55:07.197Z,26.02
2018-05-21T13:57:34.448Z,25.64
2018-05-21T14:00:01.264Z,25.63
2018-05-21T14:02:28.308Z,25.50
2018-05-21T14:04:56.263Z,25.71
2018-05-21T14:07:23.574Z,25.93
2018-05-21T14:09:50.728Z,25.95
2018-05-21T14:12:17.548Z,25.86
2018-05-21T14:14:44.376Z,26.04
2018-05-21T14:17:11.298Z,25.89
2018-05-21T14:19:38.123Z,25.98
2018-05-21T14:22:05.157Z,26.04
2018-05-21T14:24:32.772Z,26.10
2018-05-21T14:27:00.347Z,25.95
2018-05-21T14:29:27.501Z,26.34
2018-05-21T14:31:54.539Z,26.08
2018-05-21T14:34:22.101Z,26.15
2018-05-21T14:36:49.840Z,26.08
2018-05-21T14:39:17.673Z,26.10
2018-05-21T14:41:44.480Z,26.15
2018-05-21T14:44:12.035Z,26.05
2018-05-21T14:46:38.932Z,26.02
2018-05-21T14:49:05.855Z,26.12
2018-05-21T14:51:32.828Z,26.25
2018-05-21T14:53:59.889Z,26.32
2018-05-21T14:56:26.770Z,25.94
2018-05-21T14:58:53.623Z,26.20
2018-05-21T15:01:20.615Z,26.15
2018-05-21T15:03:47.577Z,26.08
2018-05-21T15:06:14.399Z,26.19
2018-05-21T15:08:41.380Z,26.32
2018-05-21T15:11:08.981Z,26.50
2018-05-21T15:13:35.941Z,26.12
2018-05-21T15:16:03.153Z,25.86
2018-05-21T15:18:30.159Z,25.61
2018-05-21T15:20:57.017Z,25.83
2018-05-21T15:23:24.041Z,25.90
2018-05-21T15:25:51.662Z,25.81
2018-05-21T15:28:18.504Z,26.03
2018-05-21T15:30:46.132Z,25.99
2018-05-21T15:33:12.939Z,25.86
2018-05-21T15:35:39.753Z,25.90
2018-05-21T15:38:07.388Z,25.81
2018-05-21T15:40:34.214Z,25.87
2018-05-21T15:43:01.032Z,25.90
2018-05-21T15:45:28.147Z,25.87
2018-05-21T15:47:54.975Z,25.59
2018-05-21T15:50:21.800Z,25.72
2018-05-21T15:52:48.660Z,25.59
2018-05-21T15:55:15.527Z,25.77
2018-05-21T15:57:42.426Z,25.73
2018-05-21T16:00:09.403Z,25.72
2018-05-21T16:02:36.967Z,25.75
2018-05-21T16:05:04.634Z,25.55
2018-05-21T16:07:32.237Z,25.68
2018-05-21T16:09:59.072Z,25.91
2018-05-21T16:12:25.893Z,25.61
2018-05-21T16:14:53.652Z,25.78
2018-05-21T16:17:20.591Z,25.72
2018-05-21T16:19:48.153Z,25.62
2018-05-21T16:22:15.858Z,25.41
2018-05-21T16:24:42.675Z,25.50
2018-05-21T16:27:09.584Z,25.43
2018-05-21T16:29:36.432Z,25.41
2018-05-21T16:32:03.284Z,25.43
2018-05-21T16:34:30.859Z,25.28
2018-05-21T16:36:58.576Z,25.49
2018-05-21T16:39:25.397Z,25.27
2018-05-21T16:41:52.279Z,25.13
2018-05-21T16:44:19.157Z,25.09
2018-05-21T16:46:46.729Z,25.13
2018-05-21T16:49:14.336Z,25.02
2018-05-21T16:51:42.039Z,24.97
2018-05-21T16:54:08.856Z,24.79
2018-05-21T16:56:35.775Z,24.86
2018-05-21T16:59:02.704Z,24.80
2018-05-21T17:01:29.529Z,24.85
2018-05-21T17:03:57.096Z,24.77
2018-05-21T17:06:24.856Z,24.59
2018-05-21T17:08:52.416Z,24.56
2018-05-21T17:11:19.967Z,24.56
2018-05-21T17:13:47.663Z,24.52
2018-05-21T17:16:14.491Z,24.43
2018-05-21T17:18:41.355Z,24.41
2018-05-21T17:21:08.291Z,24.31
2018-05-21T17:23:35.112Z,24.38
2018-05-21T17:26:02.704Z,24.30
2018-05-21T17:28:30.644Z,24.31
2018-05-21T17:30:58.255Z,24.28
2018-05-21T17:33:25.811Z,24.27
2018-05-21T17:35:52.788Z,24.30
2018-05-21T17:38:19.611Z,24.17
2018-05-21T17:40:46.432Z,24.14
2018-05-21T17:43:13.307Z,24.13
2018-05-21T17:45:40.904Z,24.15
2018-05-21T17:48:08.474Z,24.03
2018-05-21T17:50:36.081Z,24.01
2018-05-21T17:53:02.893Z,23.93
2018-05-21T17:55:29.711Z,23.78
2018-05-21T17:57:57.367Z,23.84
2018-05-21T18:00:24.179Z,23.80
2018-05-21T18:02:50.995Z,23.71
2018-05-21T18:05:17.876Z,23.63
2018-05-21T18:07:45.438Z,23.56
2018-05-21T18:10:12.289Z,23.62
2018-05-21T18:12:40.807Z,23.44
2018-05-21T18:15:08.367Z,23.38
2018-05-21T18:17:35.246Z,23.35
2018-05-21T18:20:02.128Z,23.29
2018-05-21T18:22:28.969Z,23.27
2018-05-21T18:24:55.869Z,23.15
2018-05-21T18:27:22.720Z,23.02
2018-05-21T18:29:49.596Z,23.05
2018-05-21T18:32:16.416Z,22.99
2018-05-21T18:34:43.280Z,22.92
2018-05-21T18:37:10.103Z,22.89
2018-05-21T18:39:36.919Z,22.86
2018-05-21T18:42:03.833Z,22.78
2018-05-21T18:44:30.703Z,22.76
2018-05-21T18:46:58.282Z,22.63
2018-05-21T18:49:25.148Z,22.52
2018-05-21T18:51:51.982Z,22.52
2018-05-21T18:54:18.808Z,22.45
2018-05-21T18:56:45.676Z,22.29
2018-05-21T18:59:12.559Z,22.24
2018-05-21T19:01:40.150Z,22.15
2018-05-21T19:04:07.887Z,22.16
2018-05-21T19:06:34.732Z,21.99
2018-05-21T19:09:02.403Z,21.94
2018-05-21T19:11:30.003Z,21.85
2018-05-21T19:13:56.961Z,21.77
2018-05-21T19:16:23.800Z,21.74
2018-05-21T19:18:50.681Z,21.66
2018-05-21T19:21:18.272Z,21.64
2018-05-21T19:23:45.832Z,21.60
2018-05-21T19:26:13.662Z,21.47
2018-05-21T19:28:40.712Z,21.43
2018-05-21T19:31:07.531Z,21.41
2018-05-21T19:33:34.437Z,21.29
2018-05-21T19:36:01.278Z,21.24
2018-05-21T19:38:28.108Z,21.23
2018-05-21T19:40:55.027Z,21.17
2018-05-21T19:43:21.832Z,21.09
2018-05-21T19:45:48.716Z,21.03
2018-05-21T19:48:15.649Z,20.92
2018-05-21T19:50:42.504Z,20.86
2018-05-21T19:53:09.336Z,20.80
2018-05-21T19:55:36.208Z,20.75
2018-05-21T19:58:08.830Z,20.72
2018-05-21T20:00:41.447Z,20.70
2018-05-21T20:03:14.308Z,20.52
2018-05-21T20:05:41.322Z,20.59
2018-05-21T20:08:08.878Z,20.48
2018-05-21T20:10:35.677Z,20.34
2018-05-21T20:13:03.558Z,20.33
2018-05-21T20:15:31.206Z,20.28
2018-05-21T20:17:58.747Z,20.15
2018-05-21T20:20:42.050Z,20.12
2018-05-21T20:23:08.918Z,20.08
2018-05-21T20:25:35.718Z,20.03
2018-05-21T20:28:02.564Z,20.01
2018-05-21T20:30:29.428Z,20.00
2018-05-21T20:32:56.191Z,19.89
2018-05-21T20:35:22.999Z,19.84
2018-05-21T20:37:49.815Z,19.93
2018-05-21T20:40:16.595Z,19.83
2018-05-21T20:42:43.464Z,19.79
2018-05-21T20:45:10.284Z,19.74
2018-05-21T20:47:37.073Z,19.75
2018-05-21T20:50:04.679Z,19.70
2018-05-21T20:52:31.457Z,19.62
2018-05-21T20:54:58.285Z,19.55
2018-05-21T20:57:25.098Z,19.46
2018-05-21T20:59:51.867Z,19.52
2018-05-21T21:02:18.656Z,19.50
2018-05-21T21:04:46.215Z,19.47
2018-05-21T21:07:13.069Z,19.44
2018-05-21T21:09:39.832Z,19.39
2018-05-21T21:12:07.057Z,19.33
2018-05-21T21:14:34.587Z,19.32
2018-05-21T21:17:01.376Z,19.35
2018-05-21T21:19:28.315Z,19.27
2018-05-21T21:21:55.089Z,19.29
2018-05-21T21:24:21.856Z,19.18
2018-05-21T21:26:48.674Z,19.21
2018-05-21T21:29:15.457Z,19.25
2018-05-21T21:31:42.297Z,19.11
2018-05-21T21:34:09.096Z,19.03
2018-05-21T21:36:35.898Z,18.95
2018-05-21T21:39:04.334Z,18.92
2018-05-21T21:41:31.290Z,18.90
2018-05-21T21:43:58.111Z,18.93
2018-05-21T21:46:24.892Z,18.88
2018-05-21T21:48:51.876Z,18.88
2018-05-21T21:51:18.648Z,18.80
2018-05-21T21:53:51.267Z,18.63
2018-05-21T21:56:18.135Z,18.54
2018-05-21T21:58:45.667Z,18.59
2018-05-21T22:01:12.480Z,18.57
2018-05-21T22:03:39.299Z,18.52
2018-05-21T22:06:06.101Z,18.54
2018-05-21T22:08:32.945Z,18.48
2018-05-21T22:10:59.766Z,18.46
2018-05-21T22:13:26.584Z,18.43
2018-05-21T22:15:53.370Z,18.42
2018-05-21T22:18:25.991Z,18.35
2018-05-21T22:20:52.811Z,18.22
2018-05-21T22:23:20.310Z,18.24
2018-05-21T22:25:47.167Z,18.21
2018-05-21T22:28:13.938Z,18.19
2018-05-21T22:30:40.704Z,18.10
2018-05-21T22:33:07.655Z,18.01
2018-05-21T22:35:35.168Z,17.96
2018-05-21T22:38:01.969Z,17.94
2018-05-21T22:40:28.854Z,17.83
2018-05-21T22:43:01.696Z,17.78
2018-05-21T22:45:28.547Z,17.77
2018-05-21T22:48:02.197Z,17.65
2018-05-21T22:50:28.976Z,17.61
2018-05-21T22:52:56.479Z,17.60
2018-05-21T22:55:23.280Z,17.54
2018-05-21T22:57:56.721Z,17.43
2018-05-21T23:00:23.528Z,17.31
2018-05-21T23:02:57.356Z,17.25
2018-05-21T23:05:24.123Z,17.14
2018-05-21T23:07:57.072Z,17.15
2018-05-21T23:10:23.891Z,17.03
2018-05-21T23:12:51.391Z,16.91
2018-05-21T23:15:24.155Z,16.87
2018-05-21T23:17:57.291Z,16.82
2018-05-21T23:20:24.847Z,16.79
2018-05-21T23:22:57.665Z,16.75
2018-05-21T23:25:25.180Z,16.68
2018-05-21T23:27:51.963Z,16.64
2018-05-21T23:30:18.772Z,16.60
2018-05-21T23:32:46.327Z,16.62
2018-05-21T23:35:13.095Z,16.57
2018-05-21T23:37:39.911Z,16.61
2018-05-21T23:40:06.691Z,16.44
2018-05-21T23:42:33.515Z,16.50
2018-05-21T23:45:00.488Z,16.36
2018-05-21T23:47:27.263Z,16.44
2018-05-21T23:49:54.029Z,16.45
2018-05-21T23:52:20.845Z,16.38
2018-05-21T23:54:47.624Z,16.38
2018-05-21T23:57:14.456Z,16.37
2018-05-21T23:59:41.453Z,16.34
